createdAt,value
2018-09-21T00:02:18.569Z,17.15
2018-09-21T00:04:48.620Z,17.14
2018-09-21T00:07:17.812Z,17.11
2018-09-21T00:09:46.909Z,17.08
2018-09-21T00:12:16.112Z,16.98
2018-09-21T00:14:45.214Z,16.98
2018-09-21T00:17:14.404Z,16.95
2018-09-21T00:19:43.588Z,16.98
2018-09-21T00:22:12.732Z,17.08
2018-09-21T00:24:41.872Z,17.09
2018-09-21T00:27:11.008Z,17.08
2018-09-21T00:29:40.138Z,16.94
2018-09-21T00:32:09.274Z,16.99
2018-09-21T00:34:38.397Z,16.89
2018-09-21T00:37:07.716Z,16.81
2018-09-21T00:39:36.951Z,16.92
2018-09-21T00:42:06.282Z,16.90
2018-09-21T00:44:35.412Z,16.83
2018-09-21T00:47:04.658Z,16.84
2018-09-21T00:49:33.848Z,16.74
2018-09-21T00:52:03.116Z,16.86
2018-09-21T00:54:32.346Z,16.85
2018-09-21T00:57:01.621Z,16.83
2018-09-21T00:59:30.983Z,16.77
2018-09-21T01:02:00.121Z,16.75
2018-09-21T01:04:33.471Z,16.76
2018-09-21T01:07:02.675Z,16.62
2018-09-21T01:09:31.777Z,16.67
2018-09-21T01:12:00.880Z,16.54
2018-09-21T01:14:30.025Z,16.48
2018-09-21T01:16:59.245Z,16.47
2018-09-21T01:19:28.405Z,16.46
2018-09-21T01:21:57.509Z,17.12
2018-09-21T01:24:26.731Z,16.30
2018-09-21T01:26:56.501Z,16.24
2018-09-21T01:29:25.725Z,16.21
2018-09-21T01:31:54.905Z,16.07
2018-09-21T01:34:24.131Z,16.13
2018-09-21T01:36:53.142Z,16.15
2018-09-21T01:39:22.286Z,16.12
2018-09-21T01:41:51.387Z,16.18
2018-09-21T01:44:20.496Z,16.17
2018-09-21T01:46:49.641Z,16.12
2018-09-21T01:49:18.788Z,16.12
2018-09-21T01:51:47.893Z,16.20
2018-09-21T01:54:17.091Z,16.25
2018-09-21T01:56:46.329Z,16.20
2018-09-21T01:59:15.778Z,16.10
2018-09-21T02:01:44.980Z,16.11
2018-09-21T02:04:14.196Z,16.16
2018-09-21T02:06:43.364Z,16.19
2018-09-21T02:09:12.476Z,16.10
2018-09-21T02:11:41.696Z,15.93
2018-09-21T02:14:10.862Z,15.83
2018-09-21T02:16:39.984Z,15.91
2018-09-21T02:19:09.130Z,15.95
2018-09-21T02:21:38.315Z,15.96
2018-09-21T02:24:07.457Z,16.09
2018-09-21T02:26:36.583Z,15.96
2018-09-21T02:29:05.807Z,15.83
2018-09-21T02:31:34.933Z,15.72
2018-09-21T02:34:04.140Z,15.64
2018-09-21T02:36:33.357Z,15.70
2018-09-21T02:39:02.797Z,15.61
2018-09-21T02:41:32.026Z,15.69
2018-09-21T02:44:01.096Z,15.64
2018-09-21T02:46:30.227Z,15.69
2018-09-21T02:48:59.676Z,15.73
2018-09-21T02:51:28.908Z,15.69
2018-09-21T02:53:58.013Z,15.48
2018-09-21T02:56:27.124Z,15.49
2018-09-21T02:58:56.327Z,15.54
2018-09-21T03:01:25.490Z,15.50
2018-09-21T03:03:54.621Z,15.47
2018-09-21T03:06:23.813Z,15.52
2018-09-21T03:08:52.922Z,15.45
2018-09-21T03:11:22.065Z,15.36
2018-09-21T03:13:51.218Z,15.34
2018-09-21T03:16:20.474Z,15.23
2018-09-21T03:18:49.577Z,15.41
2018-09-21T03:21:18.767Z,15.18
2018-09-21T03:23:47.912Z,15.28
2018-09-21T03:26:17.084Z,15.12
2018-09-21T03:28:46.284Z,15.09
2018-09-21T03:31:15.437Z,15.06
2018-09-21T03:33:44.564Z,15.21
2018-09-21T03:36:13.760Z,15.19
2018-09-21T03:38:42.997Z,15.24
2018-09-21T03:41:12.171Z,15.26
2018-09-21T03:43:41.302Z,15.30
2018-09-21T03:46:10.448Z,15.25
2018-09-21T03:48:39.637Z,15.25
2018-09-21T03:51:08.760Z,15.19
2018-09-21T03:53:37.892Z,15.29
2018-09-21T03:56:07.044Z,15.18
2018-09-21T03:58:36.285Z,15.21
2018-09-21T04:01:05.652Z,15.27
2018-09-21T04:03:34.740Z,15.28
2018-09-21T04:06:04.019Z,15.28
2018-09-21T04:08:33.231Z,15.29
2018-09-21T04:11:02.488Z,15.21
2018-09-21T04:13:31.737Z,15.15
2018-09-21T04:16:00.910Z,15.10
2018-09-21T04:18:30.021Z,15.12
2018-09-21T04:20:59.413Z,15.01
2018-09-21T04:23:28.632Z,15.10
2018-09-21T04:25:57.857Z,15.19
2018-09-21T04:28:26.970Z,15.16
2018-09-21T04:30:56.098Z,15.05
2018-09-21T04:33:25.217Z,15.01
2018-09-21T04:35:54.391Z,15.05
2018-09-21T04:38:23.540Z,15.08
2018-09-21T04:40:52.672Z,15.13
2018-09-21T04:43:22.001Z,15.20
2018-09-21T04:45:51.303Z,15.14
2018-09-21T04:48:20.359Z,15.09
2018-09-21T04:50:49.504Z,15.11
2018-09-21T04:53:18.671Z,15.15
2018-09-21T04:55:47.940Z,15.22
2018-09-21T04:58:17.202Z,15.09
2018-09-21T05:00:46.308Z,15.03
2018-09-21T05:03:15.437Z,15.06
2018-09-21T05:05:44.571Z,15.11
2018-09-21T05:08:13.801Z,15.17
2018-09-21T05:10:42.972Z,15.19
2018-09-21T05:13:12.138Z,15.23
2018-09-21T05:15:41.274Z,15.33
2018-09-21T05:18:10.473Z,15.32
2018-09-21T05:20:39.677Z,15.26
2018-09-21T05:23:08.834Z,15.41
2018-09-21T05:25:39.529Z,15.75
2018-09-21T05:28:08.712Z,15.90
2018-09-21T05:30:38.030Z,16.06
2018-09-21T05:33:07.126Z,16.23
2018-09-21T05:35:36.295Z,16.33
2018-09-21T05:38:05.500Z,16.28
2018-09-21T05:40:34.687Z,16.10
2018-09-21T05:43:03.799Z,16.04
2018-09-21T05:45:32.957Z,16.03
2018-09-21T05:48:02.061Z,16.04
2018-09-21T05:50:31.273Z,16.13
2018-09-21T05:53:00.465Z,16.18
2018-09-21T05:55:29.673Z,16.26
2018-09-21T05:57:58.765Z,16.45
2018-09-21T06:00:27.881Z,16.45
2018-09-21T06:02:57.098Z,16.50
2018-09-21T06:05:26.229Z,16.55
2018-09-21T06:07:55.456Z,16.73
2018-09-21T06:10:24.550Z,16.80
2018-09-21T06:12:53.681Z,16.82
2018-09-21T06:15:23.009Z,16.90
2018-09-21T06:17:52.234Z,16.89
2018-09-21T06:20:21.361Z,17.22
2018-09-21T06:22:50.527Z,17.40
2018-09-21T06:25:19.617Z,17.47
2018-09-21T06:27:48.778Z,17.62
2018-09-21T06:30:17.904Z,17.78
2018-09-21T06:32:47.061Z,17.98
2018-09-21T06:35:16.195Z,18.00
2018-09-21T06:37:45.404Z,18.14
2018-09-21T06:40:14.500Z,18.23
2018-09-21T06:42:43.608Z,18.40
2018-09-21T06:45:12.789Z,18.49
2018-09-21T06:47:41.912Z,18.55
2018-09-21T06:50:11.063Z,18.57
2018-09-21T06:52:40.196Z,18.67
2018-09-21T06:55:09.280Z,18.73
2018-09-21T06:57:38.479Z,18.93
2018-09-21T07:00:07.592Z,19.05
2018-09-21T07:02:36.792Z,19.07
2018-09-21T07:05:11.319Z,19.11
2018-09-21T07:07:40.458Z,19.26
2018-09-21T07:10:09.650Z,19.53
2018-09-21T07:12:38.740Z,19.63
2018-09-21T07:15:08.336Z,19.76
2018-09-21T07:17:37.440Z,19.84
2018-09-21T07:20:06.636Z,19.94
2018-09-21T07:22:35.979Z,20.14
2018-09-21T07:25:05.440Z,20.22
2018-09-21T07:27:34.655Z,20.28
2018-09-21T07:30:03.768Z,20.34
2018-09-21T07:32:32.952Z,20.37
2018-09-21T07:35:02.090Z,20.60
2018-09-21T07:37:31.317Z,20.65
2018-09-21T07:40:00.496Z,20.70
2018-09-21T07:42:30.642Z,20.73
2018-09-21T07:44:59.812Z,20.87
2018-09-21T07:47:28.954Z,20.91
2018-09-21T07:49:58.170Z,20.91
2018-09-21T07:52:27.363Z,21.00
2018-09-21T07:54:56.484Z,20.99
2018-09-21T07:57:25.754Z,21.21
2018-09-21T07:59:54.881Z,21.23
2018-09-21T08:02:24.053Z,21.38
2018-09-21T08:04:53.232Z,21.50
2018-09-21T08:07:22.341Z,21.61
2018-09-21T08:09:51.485Z,21.73
2018-09-21T08:12:20.657Z,21.79
2018-09-21T08:14:50.133Z,21.88
2018-09-21T08:17:19.268Z,21.98
2018-09-21T08:19:48.377Z,22.01
2018-09-21T08:22:17.504Z,22.10
2018-09-21T08:24:46.641Z,22.15
2018-09-21T08:27:17.547Z,22.18
2018-09-21T08:29:46.667Z,22.06
2018-09-21T08:32:15.877Z,22.21
2018-09-21T08:34:45.305Z,22.48
2018-09-21T08:37:14.553Z,22.55
2018-09-21T08:39:43.544Z,22.54
2018-09-21T08:42:12.753Z,22.38
2018-09-21T08:44:42.007Z,22.69
2018-09-21T08:47:11.164Z,22.55
2018-09-21T08:49:40.339Z,22.56
2018-09-21T08:52:09.441Z,22.58
2018-09-21T08:54:38.633Z,23.00
2018-09-21T08:57:07.817Z,23.08
2018-09-21T08:59:36.939Z,23.32
2018-09-21T09:02:06.164Z,23.22
2018-09-21T09:04:35.305Z,23.32
2018-09-21T09:07:04.560Z,23.48
2018-09-21T09:09:33.719Z,23.50
2018-09-21T09:12:02.804Z,23.50
2018-09-21T09:14:31.936Z,23.63
2018-09-21T09:17:01.060Z,23.63
2018-09-21T09:19:30.173Z,23.62
2018-09-21T09:21:59.292Z,23.73
2018-09-21T09:24:28.413Z,23.87
2018-09-21T09:26:57.532Z,24.09
2018-09-21T09:29:26.696Z,23.90
2018-09-21T09:31:55.772Z,24.06
2018-09-21T09:34:24.998Z,24.27
2018-09-21T09:36:54.188Z,24.18
2018-09-21T09:39:23.294Z,24.39
2018-09-21T09:41:52.584Z,24.29
2018-09-21T09:44:21.778Z,24.45
2018-09-21T09:46:50.873Z,24.32
2018-09-21T09:49:20.068Z,24.53
2018-09-21T09:51:49.137Z,24.38
2018-09-21T09:54:18.223Z,24.51
2018-09-21T09:56:47.436Z,24.42
2018-09-21T09:59:16.573Z,24.45
2018-09-21T10:01:45.813Z,24.73
2018-09-21T10:04:14.952Z,24.91
2018-09-21T10:06:44.135Z,24.87
2018-09-21T10:09:13.230Z,25.04
2018-09-21T10:11:42.313Z,24.85
2018-09-21T10:14:11.435Z,24.87
2018-09-21T10:16:40.665Z,25.15
2018-09-21T10:19:09.757Z,25.18
2018-09-21T10:21:38.921Z,25.37
2018-09-21T10:24:08.062Z,25.29
2018-09-21T10:26:37.166Z,25.53
2018-09-21T10:29:06.313Z,25.48
2018-09-21T10:31:35.593Z,25.62
2018-09-21T10:34:04.695Z,25.68
2018-09-21T10:36:34.115Z,26.05
2018-09-21T10:39:03.733Z,26.34
2018-09-21T10:41:32.842Z,26.37
2018-09-21T10:44:01.991Z,26.46
2018-09-21T10:46:31.111Z,26.30
2018-09-21T10:49:00.201Z,26.51
2018-09-21T10:51:29.399Z,26.63
2018-09-21T10:53:58.470Z,26.49
2018-09-21T10:56:27.621Z,26.46
2018-09-21T10:58:56.756Z,26.47
2018-09-21T11:01:25.884Z,26.44
2018-09-21T11:03:55.063Z,26.62
2018-09-21T11:06:24.419Z,26.53
2018-09-21T11:08:53.531Z,26.49
2018-09-21T11:11:22.632Z,26.30
2018-09-21T11:13:51.765Z,26.16
2018-09-21T11:16:21.035Z,26.18
2018-09-21T11:18:50.162Z,26.45
2018-09-21T11:21:19.261Z,26.88
2018-09-21T11:23:48.524Z,26.82
2018-09-21T11:26:17.765Z,27.23
2018-09-21T11:28:46.949Z,27.37
2018-09-21T11:31:16.129Z,27.45
2018-09-21T11:33:45.317Z,27.24
2018-09-21T11:36:14.417Z,27.10
2018-09-21T11:38:43.581Z,27.58
2018-09-21T11:41:12.706Z,27.95
2018-09-21T11:43:41.837Z,27.95
2018-09-21T11:46:11.088Z,28.71
2018-09-21T11:48:40.137Z,29.11
2018-09-21T11:51:09.304Z,28.58
2018-09-21T11:53:38.433Z,29.14
2018-09-21T11:56:07.603Z,29.39
2018-09-21T11:58:36.802Z,28.98
2018-09-21T12:01:05.933Z,30.25
2018-09-21T12:03:35.049Z,29.98
2018-09-21T12:06:06.498Z,30.77
2018-09-21T12:08:37.152Z,30.45
2018-09-21T12:11:06.384Z,31.01
2018-09-21T12:13:35.957Z,31.23
2018-09-21T12:16:05.105Z,32.14
2018-09-21T12:18:34.144Z,31.88
2018-09-21T12:21:03.244Z,32.14
2018-09-21T12:23:32.369Z,31.64
2018-09-21T12:26:01.613Z,32.11
2018-09-21T12:28:30.711Z,33.70
2018-09-21T12:30:59.861Z,31.74
2018-09-21T12:33:28.937Z,31.35
2018-09-21T12:35:58.143Z,31.95
2018-09-21T12:38:27.242Z,31.22
2018-09-21T12:40:56.348Z,31.20
2018-09-21T12:43:25.516Z,32.15
2018-09-21T12:45:54.622Z,31.79
2018-09-21T12:48:23.712Z,31.51
2018-09-21T12:50:52.918Z,32.41
2018-09-21T12:53:22.004Z,31.64
2018-09-21T12:55:51.129Z,31.41
2018-09-21T12:58:20.359Z,32.37
2018-09-21T13:00:52.548Z,32.24
2018-09-21T13:03:22.984Z,32.89
2018-09-21T13:05:57.181Z,33.09
2018-09-21T13:08:27.249Z,33.54
2018-09-21T13:10:56.687Z,32.89
2018-09-21T13:13:25.821Z,32.74
2018-09-21T13:15:54.911Z,32.71
2018-09-21T13:18:24.031Z,33.32
2018-09-21T13:20:53.108Z,34.37
2018-09-21T13:23:22.231Z,34.43
2018-09-21T13:25:51.504Z,34.69
2018-09-21T13:28:21.481Z,34.69
